Tampa, Florida
Traffic Map
Current Weather Conditions
Tampa, Florida
Scattered Clouds
Scattered Clouds
23°
Feels Like: 23°
Wind Chill: 23° Ceiling: Unl
Heat Index: 23° Visibility: 8mi
Dew Point: 22° Wind: 5mph
Humidity: 91% Direction: 170° (S)
Pressure: 29.95in Gusts: 0mph
Raw Report DataKTPA 240353Z 17004KT 8SM FEW010 SCT250 23/22 A2995 RMK AO2 SLP140 T02330217
Traffic Incident Summary
Active as of:
Severity:
Category:
InformationThere was an issue retrieving the traffic information for this location. Please try a different location or try again shortly.
Advertisements
Track Severe Weather on mobile